Athens, Wisconsin
Current Conditions -  °F | °C
As of 4:55 AM on Thursday 23 Oct 2014 (Local Time) from KMDZ Reporting Station
Light Rain Light Rain  
Wind Chill: 36°   Ceiling: 4000
Heat Index: 41°   Visibility: 10mi
Dew Point: 39°   Wind: 8mph
Humidity: 93%   Direction: 150°SSE
Pressure: 30.09"   Gusts: NA
Location:  45.03°N, 90.07°W
Report Text: KMDZ 230955Z AUTO 15007KT 10SM -RA BKN040 BKN045 OVC060 05/04 A3009 RMK AO2 P0001 T00490038
Loading
Personal Weather Stations






























Interactive Weather Map
Tropical Storm Tracking
New forecast layout! Learn more

10-Day Weather Forecast

Advertisements
Track Severe Weather on mobile